Time;durP1;ratioP1;P1;durP2;ratioP2;P2;SDS_P1;SDS_P2;PMS_P1;PMS_P2;Temp;Humidity;BMP_temperature;BMP_pressure;BME280_temperature;BME280_humidity;BME280_pressure;Samples;Min_cycle;Max_cycle;Signal;HPM_P1;HPM_P2
2022/05/15 00:05:07;;;;;;;11.8;17.7;;;;;;;-133;86.7;65260;;;;
2022/05/15 00:15:06;;;;;;;14.7;16.6;;;;;;;-133;86.9;65260;;;;
2022/05/15 00:25:06;;;;;;;14.7;16.6;;;;;;;-133;88;65260;;;;
2022/05/15 00:36:06;;;;;;;14.7;16.6;;;;;;;-133;87.5;65260;;;;
2022/05/15 00:46:06;;;;;;;15.9;23.3;;;;;;;-133;87.6;65260;;;;
2022/05/15 00:57:06;;;;;;;15.9;23.3;;;;;;;-133;89.2;65260;;;;
2022/05/15 01:08:07;;;;;;;15.9;23.3;;;;;;;-133;88.1;65260;;;;
2022/05/15 01:18:08;;;;;;;15.2;18.9;;;;;;;-133;86.9;65260;;;;
2022/05/15 01:28:06;;;;;;;15.2;18.9;;;;;;;-133;86.7;65260;;;;
2022/05/15 01:39:06;;;;;;;15.2;18.9;;;;;;;-133;87;65260;;;;
2022/05/15 01:49:06;;;;;;;14.8;22.6;;;;;;;-133;87.2;65260;;;;
2022/05/15 01:59:06;;;;;;;14.8;22.6;;;;;;;-133;87.2;65260;;;;
2022/05/15 02:10:06;;;;;;;14.8;22.6;;;;;;;-133;87.6;65260;;;;
2022/05/15 02:20:06;;;;;;;14.8;19.8;;;;;;;-133;88;65250;;;;
2022/05/15 02:30:06;;;;;;;14.8;19.8;;;;;;;-133;87.6;65260;;;;
2022/05/15 02:40:06;;;;;;;14.8;19.8;;;;;;;-133;89.4;65260;;;;
2022/05/15 02:51:06;;;;;;;15.1;21.7;;;;;;;-133;88.8;65260;;;;
2022/05/15 03:02:06;;;;;;;15.1;21.7;;;;;;;-133;88.7;65260;;;;
2022/05/15 03:12:06;;;;;;;15.1;21.7;;;;;;;-133;87.4;65260;;;;
2022/05/15 03:23:06;;;;;;;15.9;18.3;;;;;;;-133;86.1;65260;;;;
2022/05/15 03:33:08;;;;;;;15.9;18.3;;;;;;;-133;84.9;65250;;;;
2022/05/15 03:43:06;;;;;;;15.9;18.3;;;;;;;-133;84.8;65250;;;;
2022/05/15 03:53:06;;;;;;;14.1;17;;;;;;;-133;85.3;65250;;;;
2022/05/15 04:04:06;;;;;;;14.1;17;;;;;;;-133;84;65250;;;;
2022/05/15 04:14:06;;;;;;;14.1;17;;;;;;;-133;83.4;65250;;;;
2022/05/15 04:25:06;;;;;;;15.4;20.4;;;;;;;-133;82.6;65250;;;;
2022/05/15 04:35:06;;;;;;;15.4;20.4;;;;;;;-133;81.4;65250;;;;
2022/05/15 04:45:06;;;;;;;13.8;17.7;;;;;;;-133;80.6;65250;;;;
2022/05/15 04:56:06;;;;;;;13.8;17.7;;;;;;;-133;78.5;65250;;;;
2022/05/15 05:06:06;;;;;;;13.8;17.7;;;;;;;-133;78.2;65250;;;;
2022/05/15 05:17:06;;;;;;;13.8;17.2;;;;;;;-133;76.4;65240;;;;
2022/05/15 05:27:06;;;;;;;13.8;17.2;;;;;;;-133;75.7;65240;;;;
2022/05/15 05:38:06;;;;;;;13.8;17.2;;;;;;;-133;74.2;65240;;;;
2022/05/15 05:48:06;;;;;;;17.2;24;;;;;;;-133;74.4;65240;;;;
2022/05/15 05:59:06;;;;;;;17.2;24;;;;;;;-133;73.7;65240;;;;
2022/05/15 06:10:07;;;;;;;17.2;24;;;;;;;-133;73;65240;;;;
2022/05/15 06:20:06;;;;;;;15.4;19.4;;;;;;;-133;71.6;65240;;;;
2022/05/15 06:30:06;;;;;;;15.4;19.4;;;;;;;-133;68;65240;;;;
2022/05/15 06:41:06;;;;;;;15.4;19.4;;;;;;;-133;66;65230;;;;
2022/05/15 06:51:07;;;;;;;14.2;19.3;;;;;;;-133;67.5;65230;;;;
2022/05/15 07:02:06;;;;;;;14.2;19.3;;;;;;;-133;66.2;65240;;;;
2022/05/15 07:12:06;;;;;;;14.2;19.3;;;;;;;-133;64.9;65230;;;;
2022/05/15 07:23:06;;;;;;;12.3;17.5;;;;;;;-133;64.8;65230;;;;
2022/05/15 07:33:06;;;;;;;12.3;17.5;;;;;;;-133;63.2;65230;;;;
2022/05/15 07:43:06;;;;;;;12.3;17.5;;;;;;;-133;59.1;65230;;;;
2022/05/15 07:53:06;;;;;;;10.4;16.5;;;;;;;-133;60.5;65230;;;;
2022/05/15 08:04:06;;;;;;;10.4;16.5;;;;;;;-133;57.5;65230;;;;
2022/05/15 08:14:06;;;;;;;10.4;16.5;;;;;;;-133;55.3;65230;;;;
2022/05/15 08:24:07;;;;;;;8.5;13.6;;;;;;;-133;56.6;65230;;;;
2022/05/15 08:35:06;;;;;;;8.5;13.6;;;;;;;-133;50.8;65230;;;;
2022/05/15 08:46:07;;;;;;;5.6;8.9;;;;;;;-133;50.6;65230;;;;
2022/05/15 08:57:06;;;;;;;5.6;8.9;;;;;;;-133;52.9;65230;;;;
2022/05/15 09:08:06;;;;;;;5.6;8.9;;;;;;;-133;52;65220;;;;
2022/05/15 09:18:06;;;;;;;5.4;9.2;;;;;;;-133;55.1;65230;;;;
2022/05/15 09:29:06;;;;;;;5.4;9.2;;;;;;;-133;54.2;65230;;;;
2022/05/15 09:39:07;;;;;;;5.4;9.2;;;;;;;-133;50.1;65230;;;;
2022/05/15 09:50:06;;;;;;;4;7.5;;;;;;;-133;46.7;65230;;;;
2022/05/15 10:01:07;;;;;;;4;7.5;;;;;;;-133;49.1;65230;;;;
2022/05/15 10:12:07;;;;;;;4;7.5;;;;;;;-133;48.8;65230;;;;
2022/05/15 10:22:06;;;;;;;4.1;11.2;;;;;;;-133;46.7;65230;;;;
2022/05/15 10:33:06;;;;;;;4.1;11.2;;;;;;;-133;46.6;65230;;;;
2022/05/15 10:44:09;;;;;;;4.1;11.2;;;;;;;-133;45;65230;;;;
2022/05/15 11:05:06;;;;;;;3.5;9.7;;;;;;;-133;44.9;65230;;;;
2022/05/15 11:15:07;;;;;;;3.3;8.9;;;;;;;-133;43.7;65230;;;;
2022/05/15 11:26:07;;;;;;;3.3;8.9;;;;;;;-133;44;65230;;;;
2022/05/15 11:37:07;;;;;;;3.3;8.9;;;;;;;-133;43.3;65230;;;;
2022/05/15 11:47:07;;;;;;;3.6;7.5;;;;;;;-133;43.7;65230;;;;
2022/05/15 11:58:06;;;;;;;3.6;7.5;;;;;;;-133;43.3;65230;;;;
2022/05/15 12:08:07;;;;;;;3.6;7.5;;;;;;;-133;41.5;65230;;;;
2022/05/15 12:19:07;;;;;;;3.3;8;;;;;;;-133;40.1;65230;;;;
2022/05/15 12:30:07;;;;;;;3.3;8;;;;;;;-133;38.3;65230;;;;
2022/05/15 12:40:07;;;;;;;3.3;8;;;;;;;-133;38.9;65230;;;;
2022/05/15 12:51:09;;;;;;;3.2;9;;;;;;;-133;37.9;65230;;;;
2022/05/15 13:02:07;;;;;;;3.2;9;;;;;;;-133;36.2;65220;;;;
2022/05/15 13:12:07;;;;;;;3.2;9;;;;;;;-133;38;65230;;;;
2022/05/15 13:23:08;;;;;;;2.7;8.3;;;;;;;-133;37.3;65230;;;;
2022/05/15 13:33:07;;;;;;;2.7;8.3;;;;;;;-133;36.6;65230;;;;
2022/05/15 13:44:07;;;;;;;2.7;8.3;;;;;;;-133;36.4;65230;;;;
2022/05/15 13:54:07;;;;;;;2.9;9.1;;;;;;;-133;35.6;65220;;;;
2022/05/15 14:05:07;;;;;;;2.9;9.1;;;;;;;-133;35;65230;;;;
2022/05/15 14:15:07;;;;;;;2.1;5.1;;;;;;;-133;35.7;65230;;;;
2022/05/15 14:26:07;;;;;;;2.1;5.1;;;;;;;-133;36.9;65220;;;;
2022/05/15 14:37:07;;;;;;;2.1;5.1;;;;;;;-133;35.4;65230;;;;
2022/05/15 14:47:07;;;;;;;2.2;5.6;;;;;;;-133;35.3;65230;;;;
2022/05/15 14:58:07;;;;;;;2.2;5.6;;;;;;;-133;35;65230;;;;
2022/05/15 15:08:07;;;;;;;2.2;5.6;;;;;;;-133;31.2;65230;;;;
2022/05/15 15:18:07;;;;;;;2.2;8.9;;;;;;;-133;27.9;65220;;;;
2022/05/15 15:29:07;;;;;;;2.2;8.9;;;;;;;-133;26.1;65220;;;;
2022/05/15 15:40:07;;;;;;;2.2;8.9;;;;;;;-133;25.5;65220;;;;
2022/05/15 15:50:07;;;;;;;2.1;5.2;;;;;;;-133;25.1;65230;;;;
2022/05/15 16:01:07;;;;;;;2.1;5.2;;;;;;;-133;24.1;65220;;;;
2022/05/15 16:12:07;;;;;;;2.1;5.2;;;;;;;-133;27.1;65230;;;;
2022/05/15 16:22:07;;;;;;;1.5;3.5;;;;;;;-133;29.8;65230;;;;
2022/05/15 16:32:07;;;;;;;1.5;3.5;;;;;;;-133;29.3;65230;;;;
2022/05/15 16:42:09;;;;;;;1.5;3.5;;;;;;;-133;29.2;65230;;;;
2022/05/15 16:53:08;;;;;;;2.2;7;;;;;;;-133;28.7;65230;;;;
2022/05/15 17:03:07;;;;;;;2.2;7;;;;;;;-133;29.9;65230;;;;
2022/05/15 17:13:07;;;;;;;2.2;7;;;;;;;-133;30.8;65230;;;;
2022/05/15 17:23:07;;;;;;;2.9;7.9;;;;;;;-133;34.1;65230;;;;
2022/05/15 17:34:15;;;;;;;2.9;7.9;;;;;;;-133;36.8;65240;;;;
2022/05/15 17:44:08;;;;;;;2.9;7.9;;;;;;;-133;38.9;65240;;;;
2022/05/15 17:55:07;;;;;;;3.1;11.3;;;;;;;-133;41.6;65240;;;;
2022/05/15 18:05:07;;;;;;;3.1;11.3;;;;;;;-133;43.8;65250;;;;
2022/05/15 18:15:07;;;;;;;3.7;9.3;;;;;;;-133;46.1;65240;;;;
2022/05/15 18:25:07;;;;;;;3.7;9.3;;;;;;;-133;48.1;65250;;;;
2022/05/15 18:36:07;;;;;;;3.7;9.3;;;;;;;-133;52.3;65250;;;;
2022/05/15 18:47:08;;;;;;;4.6;9.7;;;;;;;-133;57;65250;;;;
2022/05/15 18:57:07;;;;;;;4.6;9.7;;;;;;;-133;55.4;65250;;;;
2022/05/15 19:07:07;;;;;;;4.6;9.7;;;;;;;-133;57.7;65250;;;;
2022/05/15 19:17:07;;;;;;;12.3;18.4;;;;;;;-133;62.9;65250;;;;
2022/05/15 19:27:07;;;;;;;12.3;18.4;;;;;;;-133;63.6;65250;;;;
2022/05/15 19:37:07;;;;;;;12.3;18.4;;;;;;;-133;64.9;65250;;;;
2022/05/15 19:48:07;;;;;;;5.1;9.7;;;;;;;-133;66.9;65250;;;;
2022/05/15 19:59:07;;;;;;;5.1;9.7;;;;;;;-133;70;65250;;;;
2022/05/15 20:20:07;;;;;;;5.9;9.8;;;;;;;-133;71.8;65250;;;;
2022/05/15 20:30:07;;;;;;;5.9;9.8;;;;;;;-133;69.6;65250;;;;
2022/05/15 20:41:07;;;;;;;5.9;9.8;;;;;;;-133;69.9;65250;;;;
2022/05/15 20:51:07;;;;;;;4.4;7.7;;;;;;;-133;70.3;65250;;;;
2022/05/15 21:02:07;;;;;;;4.4;7.7;;;;;;;-133;71.3;65250;;;;
2022/05/15 21:12:07;;;;;;;4.4;7.7;;;;;;;-133;74.6;65250;;;;
2022/05/15 21:23:07;;;;;;;3.9;8.3;;;;;;;-133;74.5;65250;;;;
2022/05/15 21:33:07;;;;;;;3.9;8.3;;;;;;;-133;76.7;65250;;;;
2022/05/15 21:44:07;;;;;;;3.9;8.3;;;;;;;-133;78.2;65250;;;;
2022/05/15 21:55:07;;;;;;;4;7.4;;;;;;;-133;80.8;65260;;;;
2022/05/15 22:05:08;;;;;;;4;7.4;;;;;;;-133;78;65260;;;;
2022/05/15 22:15:07;;;;;;;3.2;5.9;;;;;;;-133;77.7;65260;;;;
2022/05/15 22:25:07;;;;;;;3.2;5.9;;;;;;;-133;81.3;65260;;;;
2022/05/15 22:35:07;;;;;;;3.2;5.9;;;;;;;-133;79.6;65260;;;;
2022/05/15 22:45:08;;;;;;;3.8;6;;;;;;;-133;83.8;65260;;;;
2022/05/15 22:55:07;;;;;;;3.8;6;;;;;;;-133;84.2;65260;;;;
2022/05/15 23:17:07;;;;;;;4.8;8.1;;;;;;;-133;85.4;65260;;;;
2022/05/15 23:27:07;;;;;;;4.8;8.1;;;;;;;-133;85;65260;;;;
2022/05/15 23:37:07;;;;;;;4.8;8.1;;;;;;;-133;85;65260;;;;
2022/05/15 23:48:07;;;;;;;5.1;8.2;;;;;;;-133;88.8;65270;;;;
2022/05/15 23:59:07;;;;;;;5.1;8.2;;;;;;;-133;87.6;65260;;;;
